Home   Weather   USA   Braselton   Past weeks
Flag for USA

Past Weather in Braselton, Georgia, USA — Yesterday and Last 2 Weeks

Currently: 86 °F. Broken clouds. (Weather station: Winder-Barrow Airport, USA). See more current weather

Past Weather in Braselton — Graph

°F

Braselton Temperature Yesterday

Maximum temperature yesterday: 82 °F (at 2:35 pm)
Minimum temperature yesterday: 59 °F (at 6:15 am)
Average temperature yesterday: 72 °F

High & Low Weather Summary for the Past Weeks

 TemperatureHumidityPressure
High90 °F (Jun 9, 2:55 pm)100% (Jun 3, 11:55 pm)30.28 "Hg (Jun 3, 11:55 pm)
Low55 °F (May 31, 5:35 am)23% (May 29, 2:15 pm)29.78 "Hg (Jun 6, 6:35 pm)
Average73 °F64%30.00 "Hg
* Reported May 28 2:15 pm — Jun 12 2:35 pm, Braselton. Weather by CustomWeather, © 2024

Note: Actual official high and low records may vary slightly from our data, if they occured in-between our weather recording intervals... More about our weather records

Braselton Weather History for the Previous 24 Hours

Scroll right to see more
 ConditionsComfort  
Time TempWeatherWind HumidityBarometerVisibility
2:35 pm
Wed, Jun 12
86 °FScattered clouds.No wind46%30.01 "Hg10 mi
1:55 pm84 °FScattered clouds.No wind48%30.02 "Hg10 mi
1:15 pm82 °FScattered clouds.No wind48%30.03 "Hg10 mi
12:55 pm81 °FBroken clouds.No wind58%30.03 "Hg10 mi
12:35 pm82 °FScattered clouds.No wind55%30.04 "Hg10 mi
11:55 am81 °FBroken clouds.No wind62%30.04 "Hg10 mi
11:35 am79 °FPartly sunny.No wind65%30.04 "Hg10 mi
11:15 am79 °FScattered clouds.No wind70%30.05 "Hg10 mi
10:55 am77 °FScattered clouds.No wind74%30.05 "Hg10 mi
10:15 am72 °FLow clouds.No wind83%30.05 "Hg10 mi
9:15 am68 °FLow clouds.No wind83%30.04 "Hg10 mi
8:35 am66 °FLow clouds.No wind88%30.04 "Hg10 mi
8:15 am64 °FLow clouds.No wind94%30.04 "Hg10 mi
7:15 am64 °FOvercast.No wind88%30.02 "Hg10 mi
6:55 am63 °FPartly sunny.No wind94%30.02 "Hg10 mi
6:35 am63 °FScattered clouds.No wind88%30.01 "Hg10 mi
6:15 am63 °FPassing clouds.No wind88%30.00 "Hg10 mi
5:55 am63 °FPassing clouds.No wind88%30.00 "Hg10 mi
5:35 am63 °FOvercast.No wind94%29.99 "Hg10 mi
5:15 am63 °FPartly cloudy.No wind88%29.99 "Hg10 mi
4:55 am63 °FPassing clouds.No wind88%29.99 "Hg10 mi
4:15 am63 °FPassing clouds.No wind88%29.97 "Hg10 mi
3:35 am63 °FClear.No wind88%29.97 "Hg10 mi
2:55 am63 °FClear.No wind88%29.97 "Hg10 mi
2:35 am63 °FClear.No wind88%29.97 "Hg10 mi
2:15 am64 °FClear.No wind83%29.97 "Hg10 mi
1:35 am64 °FClear.No wind83%29.98 "Hg10 mi
1:15 am64 °FClear.No wind78%29.98 "Hg10 mi
12:55 am64 °FClear.No wind78%29.98 "Hg10 mi
12:35 am68 °FClear.No wind69%29.98 "Hg10 mi
12:15 am68 °FClear.No wind69%29.98 "Hg10 mi
11:55 pm
Tue, Jun 11
68 °FClear.No wind73%29.97 "Hg10 mi
11:35 pm68 °FClear.No wind73%29.97 "Hg10 mi
11:15 pm68 °FClear.No wind73%29.97 "Hg10 mi
10:55 pm70 °FClear.No wind64%29.97 "Hg10 mi
10:15 pm70 °FClear.No wind60%29.95 "Hg10 mi
9:55 pm72 °FClear.No wind61%29.95 "Hg10 mi
9:35 pm72 °FClear.No wind57%29.94 "Hg10 mi
9:15 pm72 °FClear.No wind57%29.94 "Hg10 mi
8:55 pm73 °FClear.No wind57%29.93 "Hg10 mi
8:35 pm77 °FSunny.No wind47%29.93 "Hg10 mi
7:55 pm81 °FSunny.No wind37%29.92 "Hg10 mi
7:35 pm81 °FSunny.No wind37%29.92 "Hg10 mi
7:15 pm82 °FSunny.No wind35%29.92 "Hg10 mi
6:35 pm82 °FSunny.No wind35%29.91 "Hg10 mi
6:15 pm82 °FSunny.No wind35%29.91 "Hg10 mi
5:55 pm82 °FSunny.No wind26%29.91 "Hg10 mi
5:35 pm82 °FSunny.No wind26%29.91 "Hg10 mi
5:15 pm82 °FSunny.No wind28%29.92 "Hg10 mi
4:55 pm82 °FSunny.No wind32%29.92 "Hg10 mi
4:15 pm82 °FSunny.No wind32%29.92 "Hg10 mi
3:15 pm82 °FSunny.No wind32%29.93 "Hg10 mi
Weather by CustomWeather, © 2024

See weather overview